Hlavní strana
METAR-TAF:

METAR-TAF

Letiště :

Jasper, Alabama, Spojené státy americké

zeměpisná šířka: 33-54-07N, zeměpisná délka: 087-18-51W, výška: 147 m

Aktuální stav počasí

Zpráva byla vytvořena před 12 minutami, v 02:55 UTC
Bezvětří
Teplota 13°C
Vlhkost vzduchu 100%
Tlak 1021 hPa
Viditelnost: 9.7 km
Polojasno ve výšce 1500 ft
Polojasno ve výšce 2200 ft
Oblačno až skoro zataženo ve výšce 8000 ft
kouřmo

METAR: KJFX 190255Z AUTO 00000KT 6SM BR SCT015 SCT022 BKN080 13/13 A3015 RMK AO2

Čas: 21:07 (03:07 UTC)


TAF: chybějící

Stav a předpovědi počasí z více než 4 000 letišť (zprávy METAR a TAF).

Červené a žluté tečky na mapě představují dostupné meteorologické stanice.

Když kurzor umístíte na tečku, zobrazí se název stanice.

Pak kliknutím zobrazíte stav a předpověď počasí.

Chcete-li změnit mapu, kliknutím na zelené tlačítko se znaménkem +mapu přiblížíte, kliknutím na zelené tlačítko se znaménkem – mapu oddálíte a kliknutím na zelené šipky přejdete na sousední mapy.


METAR-TAF: